Time;durP1;ratioP1;P1;durP2;ratioP2;P2;SDS_P1;SDS_P2;PMS_P1;PMS_P2;Temp;Humidity;BMP_temperature;BMP_pressure;BME280_temperature;BME280_humidity;BME280_pressure;Samples;Min_cycle;Max_cycle;Signal;HPM_P1;HPM_P2
2022/09/10 00:03:04;;;;;;;7.20;2.97;;;15.70;99.90;;;;;;21002396;28;20036;-83
2022/09/10 00:13:08;;;;;;;4.50;2.38;;;15.70;99.90;;;;;;20994141;28;20033;-82
2022/09/10 00:23:09;;;;;;;8.82;2.55;;;15.70;99.90;;;;;;20982507;28;20032;-82
2022/09/10 00:33:11;;;;;;;4.30;1.95;;;15.60;99.90;;;;;;20975311;28;20028;-82
2022/09/10 00:43:19;;;;;;;9.23;2.38;;;15.50;99.90;;;;;;20969690;28;20044;-82
2022/09/10 00:53:23;;;;;;;5.35;2.33;;;15.50;99.90;;;;;;20980911;28;20715;-82
2022/09/10 01:03:24;;;;;;;7.90;2.72;;;15.50;99.90;;;;;;20985821;28;20395;-82
2022/09/10 01:13:38;;;;;;;5.38;2.58;;;15.50;99.90;;;;;;20983728;28;20024;-81
2022/09/10 01:24:21;;;;;;;4.10;1.98;;;15.40;99.90;;;;;;20983787;28;20723;-82
2022/09/10 01:34:37;;;;;;;4.18;1.88;;;15.40;99.90;;;;;;20995292;28;20365;-82
2022/09/10 01:44:56;;;;;;;3.25;1.73;;;15.30;99.90;;;;;;20946938;28;21625;-82
2022/09/10 01:55:06;;;;;;;10.38;1.80;;;15.20;99.90;;;;;;20957711;28;20045;-81
2022/09/10 02:05:09;;;;;;;4.75;2.17;;;15.10;99.90;;;;;;20977916;28;20098;-81
2022/09/10 02:15:11;;;;;;;7.38;3.10;;;15.10;99.90;;;;;;20976316;28;20028;-81
2022/09/10 02:25:12;;;;;;;11.35;2.85;;;15.20;99.90;;;;;;20972917;28;20036;-81
2022/09/10 02:35:15;;;;;;;10.25;4.88;;;15.20;99.90;;;;;;20972353;28;20502;-81
2022/09/10 02:45:17;;;;;;;8.23;3.60;;;15.30;99.90;;;;;;20996873;28;20109;-80
2022/09/10 02:55:17;;;;;;;6.32;3.55;;;15.40;99.90;;;;;;20999643;28;20029;-81
2022/09/10 03:05:18;;;;;;;7.72;4.03;;;15.50;99.90;;;;;;20973140;28;20045;-81
2022/09/10 03:15:21;;;;;;;7.07;3.97;;;15.50;99.90;;;;;;20959576;28;20040;-80
2022/09/10 03:25:22;;;;;;;7.00;3.58;;;15.50;99.90;;;;;;20997845;28;20284;-81
2022/09/10 03:35:24;;;;;;;9.20;5.00;;;15.60;99.90;;;;;;21001629;28;20105;-80
2022/09/10 03:45:25;;;;;;;8.10;4.97;;;15.60;99.90;;;;;;20990552;28;20055;-81
2022/09/10 03:55:26;;;;;;;7.68;4.78;;;15.60;99.90;;;;;;21035753;28;20028;-80
2022/09/10 04:05:28;;;;;;;7.63;3.63;;;15.70;99.90;;;;;;20990007;28;20044;-80
2022/09/10 04:15:30;;;;;;;6.55;4.03;;;15.70;99.90;;;;;;20977580;28;20078;-81
2022/09/10 04:25:32;;;;;;;7.28;4.40;;;15.80;99.90;;;;;;20979568;28;20097;-81
2022/09/10 04:35:33;;;;;;;6.47;3.50;;;15.70;99.90;;;;;;20971329;28;20044;-81
2022/09/10 04:45:34;;;;;;;8.18;4.28;;;15.70;99.90;;;;;;20963140;28;20081;-80
2022/09/10 04:55:38;;;;;;;7.05;4.70;;;15.80;99.90;;;;;;20981968;28;20035;-81
2022/09/10 05:05:41;;;;;;;6.93;5.15;;;15.80;99.90;;;;;;20967410;28;20078;-81
2022/09/10 05:15:42;;;;;;;5.88;2.65;;;15.80;99.90;;;;;;20968503;28;20112;-81
2022/09/10 05:25:44;;;;;;;4.82;2.53;;;15.80;99.90;;;;;;21004611;28;20036;-81
2022/09/10 05:35:50;;;;;;;6.95;3.05;;;15.80;99.90;;;;;;20972567;28;20484;-81
2022/09/10 05:45:51;;;;;;;5.13;2.85;;;15.80;99.90;;;;;;20950542;28;20056;-81
2022/09/10 05:55:52;;;;;;;5.25;2.58;;;15.80;99.90;;;;;;20973232;28;20494;-81
2022/09/10 06:05:54;;;;;;;5.32;2.85;;;15.80;99.90;;;;;;20971578;28;20036;-81
2022/09/10 06:15:56;;;;;;;5.25;2.97;;;15.90;99.90;;;;;;20970912;28;20102;-81
2022/09/10 06:26:03;;;;;;;6.20;3.15;;;16.10;99.90;;;;;;20959734;28;20357;-80
2022/09/10 06:36:04;;;;;;;6.93;3.23;;;16.20;99.90;;;;;;20980805;28;20044;-80
2022/09/10 06:46:13;;;;;;;7.43;3.08;;;16.30;99.90;;;;;;20979602;28;20101;-81
2022/09/10 06:56:14;;;;;;;7.95;3.70;;;16.40;99.90;;;;;;20986056;28;20476;-81
2022/09/10 07:06:16;;;;;;;6.60;3.38;;;16.60;99.90;;;;;;20970408;28;20438;-81
2022/09/10 07:16:19;;;;;;;4.93;2.78;;;16.70;99.90;;;;;;20999381;28;20355;-80
2022/09/10 07:26:20;;;;;;;5.13;2.63;;;16.70;99.90;;;;;;20982178;28;20044;-81
2022/09/10 07:36:21;;;;;;;6.38;2.10;;;16.80;99.90;;;;;;20980605;28;20208;-81
2022/09/10 07:46:24;;;;;;;4.60;1.75;;;17.00;99.90;;;;;;20995269;28;20056;-81
2022/09/10 07:56:25;;;;;;;8.80;1.90;;;17.20;99.90;;;;;;20971175;28;20062;-81
2022/09/10 08:06:26;;;;;;;3.78;2.20;;;17.50;99.90;;;;;;21001668;28;20105;-81
2022/09/10 08:16:27;;;;;;;2.60;1.63;;;17.60;99.90;;;;;;20990558;28;20040;-81
2022/09/10 08:26:28;;;;;;;5.65;2.15;;;17.40;99.90;;;;;;20976358;28;20488;-81
2022/09/10 08:36:29;;;;;;;3.42;2.08;;;17.30;99.90;;;;;;20980676;28;20407;-81
2022/09/10 08:46:43;;;;;;;2.65;1.38;;;17.30;99.90;;;;;;20999451;28;20036;-81
2022/09/10 08:56:46;;;;;;;3.00;1.50;;;17.70;99.90;;;;;;21001308;28;21400;-81
2022/09/10 09:06:51;;;;;;;3.53;1.67;;;18.40;99.90;;;;;;20981845;28;20032;-81
2022/09/10 09:17:11;;;;;;;2.60;1.38;;;18.30;99.90;;;;;;20972348;28;20041;-78
2022/09/10 09:27:18;;;;;;;1.77;0.80;;;18.30;99.90;;;;;;20982028;28;20028;-78
2022/09/10 09:37:24;;;;;;;2.13;1.10;;;19.10;99.90;;;;;;20967023;28;20074;-78
2022/09/10 09:47:25;;;;;;;3.17;1.00;;;19.30;99.90;;;;;;20973927;28;20065;-78
2022/09/10 09:57:28;;;;;;;3.10;1.00;;;19.50;99.90;;;;;;20984732;28;20062;-78
2022/09/10 10:07:31;;;;;;;2.05;1.13;;;19.60;99.90;;;;;;20967068;28;20040;-78
2022/09/10 10:17:38;;;;;;;2.90;1.30;;;19.50;99.90;;;;;;20970553;28;20093;-78
2022/09/10 10:27:44;;;;;;;2.17;0.80;;;19.30;99.90;;;;;;21000329;28;20665;-78
2022/09/10 10:37:59;;;;;;;1.48;0.57;;;19.50;99.90;;;;;;20995616;28;20484;-78
2022/09/10 10:48:12;;;;;;;1.77;0.90;;;19.60;99.90;;;;;;20985936;28;20109;-78
2022/09/10 10:58:15;;;;;;;2.05;0.88;;;20.00;99.90;;;;;;20994140;28;20044;-78
2022/09/10 11:08:19;;;;;;;1.50;0.65;;;20.30;99.90;;;;;;21006049;28;20032;-78
2022/09/10 11:18:35;;;;;;;1.27;0.38;;;20.60;99.90;;;;;;21008772;28;20040;-79
2022/09/10 11:28:54;;;;;;;1.35;0.50;;;21.20;99.90;;;;;;20990232;28;20366;-80
2022/09/10 11:39:22;;;;;;;1.33;0.55;;;21.40;99.90;;;;;;20980616;28;20074;-80
2022/09/10 11:49:39;;;;;;;1.15;0.45;;;22.10;99.90;;;;;;20983112;28;20534;-81
2022/09/10 11:59:59;;;;;;;;;;;22.00;99.90;;;;;;20999607;28;20699;-80
2022/09/10 12:10:30;;;;;;;1.70;0.60;;;22.40;99.90;;;;;;20971022;28;20358;-81
2022/09/10 12:20:41;;;;;;;0.82;0.40;;;22.80;99.90;;;;;;20997956;28;20094;-80
2022/09/10 12:30:41;;;;;;;2.03;0.68;;;22.90;99.90;;;;;;20994258;28;20028;-80
2022/09/10 12:40:48;;;;;;;1.13;0.50;;;22.80;99.90;;;;;;20990148;28;20147;-80
2022/09/10 12:50:54;;;;;;;1.07;0.47;;;22.90;99.90;;;;;;20989556;28;20114;-80
2022/09/10 13:00:56;;;;;;;0.93;0.60;;;22.70;99.90;;;;;;20991708;28;21186;-80
2022/09/10 13:10:58;;;;;;;1.33;0.43;;;23.30;99.90;;;;;;20987145;28;20086;-81
2022/09/10 13:21:21;;;;;;;0.82;0.30;;;23.80;99.90;;;;;;20960905;28;20041;-81
2022/09/10 13:31:25;;;;;;;1.10;0.50;;;24.50;99.90;;;;;;20967105;28;20404;-81
2022/09/10 13:41:55;;;;;;;1.70;0.50;;;24.90;99.90;;;;;;20973355;28;20526;-81
2022/09/10 13:51:59;;;;;;;1.15;0.40;;;25.30;99.90;;;;;;20973428;28;20419;-81
2022/09/10 14:02:00;;;;;;;0.57;0.30;;;25.30;99.90;;;;;;20962460;28;20093;-81
2022/09/10 14:12:06;;;;;;;0.73;0.30;;;25.90;99.90;;;;;;20983674;28;20040;-81
2022/09/10 14:22:24;;;;;;;0.98;0.50;;;25.00;99.90;;;;;;20974872;28;20081;-81
2022/09/10 14:32:35;;;;;;;0.90;0.50;;;24.20;99.90;;;;;;20949463;28;20045;-81
2022/09/10 14:42:36;;;;;;;0.88;0.32;;;23.70;99.90;;;;;;20973561;28;20071;-80
2022/09/10 14:52:37;;;;;;;1.48;0.60;;;23.40;99.90;;;;;;20970415;28;20646;-81
2022/09/10 15:02:40;;;;;;;1.58;0.80;;;22.50;99.90;;;;;;20992564;28;20291;-81
2022/09/10 15:12:45;;;;;;;2.30;1.15;;;21.80;99.90;;;;;;20994309;28;20065;-81
2022/09/10 15:22:47;;;;;;;1.65;0.50;;;21.90;99.90;;;;;;20990829;28;20040;-81
2022/09/10 15:32:48;;;;;;;2.20;0.70;;;21.50;99.90;;;;;;20983387;28;20041;-81
2022/09/10 15:42:51;;;;;;;1.60;0.47;;;21.50;99.90;;;;;;20967979;28;20043;-81
2022/09/10 15:52:52;;;;;;;2.20;0.93;;;21.40;99.90;;;;;;20990550;28;20037;-81
2022/09/10 16:02:53;;;;;;;1.98;1.02;;;21.10;99.90;;;;;;20992309;28;20382;-81
2022/09/10 16:12:54;;;;;;;2.75;1.10;;;21.10;99.90;;;;;;21003716;28;20029;-81
2022/09/10 16:22:57;;;;;;;2.60;0.93;;;20.90;99.90;;;;;;20977801;28;20094;-81
2022/09/10 16:32:58;;;;;;;2.53;0.73;;;20.50;99.90;;;;;;21002165;28;20098;-81
2022/09/10 16:42:59;;;;;;;1.05;0.40;;;20.30;99.90;;;;;;20840795;28;20049;-81
2022/09/10 16:53:01;;;;;;;2.75;0.65;;;20.00;99.90;;;;;;20829498;28;20036;-81
2022/09/10 17:03:02;;;;;;;1.35;0.65;;;19.90;99.90;;;;;;20831080;28;20090;-81
2022/09/10 17:13:03;;;;;;;1.45;0.68;;;19.80;99.90;;;;;;20823551;28;20060;-81
2022/09/10 17:23:05;;;;;;;1.00;0.43;;;19.80;99.90;;;;;;20804120;28;20443;-79
2022/09/10 17:33:06;;;;;;;2.10;0.80;;;19.70;99.90;;;;;;20797366;28;20097;-79
2022/09/10 17:43:07;;;;;;;2.10;0.90;;;19.60;99.90;;;;;;20821078;28;20042;-79
2022/09/10 17:53:08;;;;;;;2.33;1.00;;;19.50;99.90;;;;;;20831401;28;20543;-80
2022/09/10 18:03:11;;;;;;;2.78;1.35;;;19.30;99.90;;;;;;20834761;28;20041;-79
2022/09/10 18:13:13;;;;;;;1.50;0.68;;;19.10;99.90;;;;;;20824455;28;20033;-79
2022/09/10 18:23:14;;;;;;;3.17;0.98;;;19.00;99.90;;;;;;20819021;28;20029;-79
2022/09/10 18:33:15;;;;;;;2.60;1.33;;;18.80;99.90;;;;;;20818891;28;20048;-79
2022/09/10 18:43:16;;;;;;;2.55;1.33;;;18.70;99.90;;;;;;20836307;28;20122;-79
2022/09/10 18:53:17;;;;;;;4.60;1.50;;;18.50;99.90;;;;;;20844355;28;20060;-79
2022/09/10 19:03:18;;;;;;;1.58;0.70;;;18.40;99.90;;;;;;20847860;28;20041;-80
2022/09/10 19:13:19;;;;;;;6.28;1.20;;;18.10;99.90;;;;;;20812517;28;20528;-79
2022/09/10 19:23:20;;;;;;;4.82;1.95;;;17.90;99.90;;;;;;20847038;28;20794;-79
2022/09/10 19:33:21;;;;;;;3.38;1.52;;;17.80;99.90;;;;;;20838623;28;20076;-80
2022/09/10 19:43:22;;;;;;;5.30;1.65;;;17.70;99.90;;;;;;20827421;28;20041;-80
2022/09/10 19:53:23;;;;;;;2.55;1.83;;;17.70;99.90;;;;;;20829090;28;20617;-79
2022/09/10 20:03:24;;;;;;;4.82;2.58;;;17.50;99.90;;;;;;20841009;28;20033;-79
2022/09/10 20:13:26;;;;;;;2.03;1.15;;;17.40;99.90;;;;;;20827454;28;20430;-82
2022/09/10 20:23:27;;;;;;;4.82;2.13;;;17.20;99.90;;;;;;20806471;28;20386;-80
2022/09/10 20:33:28;;;;;;;3.75;2.00;;;17.00;99.90;;;;;;20804146;28;20034;-80
2022/09/10 20:43:29;;;;;;;2.75;1.65;;;16.90;99.90;;;;;;20821185;28;20515;-80
2022/09/10 20:53:35;;;;;;;7.53;1.80;;;16.70;99.90;;;;;;20815370;28;20075;-80
2022/09/10 21:03:37;;;;;;;5.78;2.05;;;16.60;99.90;;;;;;20806932;28;20041;-83
2022/09/10 21:13:46;;;;;;;3.58;1.98;;;16.60;99.90;;;;;;20805192;28;20547;-80
2022/09/10 21:23:49;;;;;;;3.55;2.08;;;16.40;99.90;;;;;;20791818;28;20754;-80
2022/09/10 21:33:50;;;;;;;3.53;2.50;;;16.30;99.90;;;;;;20798404;28;20068;-80
2022/09/10 21:43:51;;;;;;;4.22;2.10;;;16.30;99.90;;;;;;20959184;28;20036;-80
2022/09/10 21:53:54;;;;;;;4.50;2.58;;;16.30;99.90;;;;;;20976181;28;20043;-80
2022/09/10 22:03:58;;;;;;;5.60;2.53;;;16.20;99.90;;;;;;20964376;28;20044;-80
2022/09/10 22:14:14;;;;;;;5.47;2.47;;;16.20;99.90;;;;;;20941134;28;20860;-80
2022/09/10 22:24:18;;;;;;;6.85;4.22;;;16.20;99.90;;;;;;20944632;28;20097;-81
2022/09/10 22:34:19;;;;;;;8.60;4.07;;;16.00;99.90;;;;;;20964707;28;20172;-81
2022/09/10 22:44:22;;;;;;;4.43;2.92;;;16.00;99.90;;;;;;20965603;28;21060;-81
2022/09/10 22:54:22;;;;;;;7.57;2.88;;;15.90;99.90;;;;;;20959020;28;20083;-81
2022/09/10 23:04:24;;;;;;;5.05;2.33;;;15.90;99.90;;;;;;20950881;28;20058;-81
2022/09/10 23:14:24;;;;;;;5.65;3.22;;;15.70;99.90;;;;;;20950739;28;20056;-82
2022/09/10 23:24:26;;;;;;;4.35;2.60;;;15.50;99.90;;;;;;20965152;28;20060;-82
2022/09/10 23:34:27;;;;;;;4.38;2.25;;;15.50;99.90;;;;;;20975805;28;20051;-81
2022/09/10 23:44:29;;;;;;;3.78;2.38;;;15.50;99.90;;;;;;20993967;28;20090;-80
2022/09/10 23:54:30;;;;;;;5.90;3.20;;;15.50;99.90;;;;;;20959390;28;20036;-82
